createdAt,value
2022-10-02T00:02:42.059Z,85.26
2022-10-02T00:05:52.999Z,85.16
2022-10-02T00:09:04.730Z,85.16
2022-10-02T00:12:15.685Z,85.20
2022-10-02T00:15:27.780Z,85.36
2022-10-02T00:18:38.470Z,85.32
2022-10-02T00:22:02.728Z,85.33
2022-10-02T00:25:19.024Z,85.37
2022-10-02T00:28:29.971Z,85.24
2022-10-02T00:31:46.076Z,85.33
2022-10-02T00:35:05.708Z,85.41
2022-10-02T00:38:21.891Z,85.26
2022-10-02T00:41:55.811Z,85.40
2022-10-02T00:45:27.881Z,85.52
2022-10-02T00:48:55.135Z,85.36
2022-10-02T00:52:19.865Z,85.45
2022-10-02T00:55:53.226Z,85.53
2022-10-02T00:59:30.514Z,85.52
2022-10-02T01:02:57.943Z,85.29
2022-10-02T01:06:04.179Z,85.42
2022-10-02T01:09:08.804Z,85.37
2022-10-02T01:12:16.262Z,85.33
2022-10-02T01:15:29.127Z,85.32
2022-10-02T01:18:35.392Z,85.18
2022-10-02T01:21:50.843Z,85.20
2022-10-02T01:24:57.756Z,85.35
2022-10-02T01:28:05.840Z,85.32
2022-10-02T01:31:14.837Z,85.24
2022-10-02T01:34:21.655Z,85.25
2022-10-02T01:37:31.173Z,85.20
2022-10-02T01:40:38.935Z,84.98
2022-10-02T01:43:49.279Z,85.04
2022-10-02T01:47:02.584Z,85.09
2022-10-02T01:50:19.236Z,84.97
2022-10-02T01:53:33.079Z,84.92
2022-10-02T01:56:49.221Z,85.04
2022-10-02T02:00:07.710Z,85.10
2022-10-02T02:03:23.584Z,84.93
2022-10-02T02:06:35.450Z,85.01
2022-10-02T02:09:47.360Z,85.05
2022-10-02T02:13:01.861Z,84.99
2022-10-02T02:16:15.515Z,84.92
2022-10-02T02:19:27.151Z,84.91
2022-10-02T02:22:35.649Z,85.09
2022-10-02T02:25:45.390Z,84.82
2022-10-02T02:28:58.648Z,84.94
2022-10-02T02:32:09.359Z,84.94
2022-10-02T02:35:18.620Z,85.12
2022-10-02T02:38:30.886Z,85.01
2022-10-02T02:41:43.078Z,85.22
2022-10-02T02:44:54.275Z,85.17
2022-10-02T02:48:05.783Z,85.24
2022-10-02T02:51:16.529Z,85.23
2022-10-02T02:54:29.163Z,85.26
2022-10-02T02:57:41.635Z,85.32
2022-10-02T03:00:48.122Z,85.18
2022-10-02T03:03:54.427Z,85.18
2022-10-02T03:07:04.343Z,85.26
2022-10-02T03:10:17.554Z,85.20
2022-10-02T03:13:37.277Z,85.38
2022-10-02T03:16:55.277Z,85.55
2022-10-02T03:20:08.927Z,85.34
2022-10-02T03:23:23.788Z,85.31
2022-10-02T03:26:38.611Z,85.28
2022-10-02T03:29:51.918Z,85.40
2022-10-02T03:33:01.320Z,85.28
2022-10-02T03:36:08.121Z,85.26
2022-10-02T03:39:29.949Z,85.27
2022-10-02T03:42:38.287Z,85.37
2022-10-02T03:45:51.281Z,85.49
2022-10-02T03:48:58.140Z,85.37
2022-10-02T03:52:03.023Z,85.38
2022-10-02T03:55:22.694Z,85.41
2022-10-02T03:58:28.951Z,85.46
2022-10-02T04:01:38.344Z,85.58
2022-10-02T04:04:49.265Z,85.48
2022-10-02T04:07:59.122Z,85.41
2022-10-02T04:11:12.940Z,85.31
2022-10-02T04:14:24.269Z,85.47
2022-10-02T04:17:36.676Z,85.27
2022-10-02T04:20:48.827Z,85.25
2022-10-02T04:23:58.923Z,85.34
2022-10-02T04:27:09.461Z,85.24
2022-10-02T04:30:18.217Z,85.08
2022-10-02T04:33:26.192Z,85.13
2022-10-02T04:36:43.052Z,85.21
2022-10-02T04:40:06.656Z,85.27
2022-10-02T04:43:23.810Z,85.20
2022-10-02T04:46:47.624Z,85.07
2022-10-02T04:50:20.084Z,85.12
2022-10-02T04:53:42.591Z,84.96
2022-10-02T04:57:03.348Z,85.10
2022-10-02T05:00:13.078Z,85.24
2022-10-02T05:03:40.971Z,85.24
2022-10-02T05:07:02.479Z,85.05
2022-10-02T05:10:24.798Z,84.99
2022-10-02T05:14:07.230Z,84.96
2022-10-02T05:17:29.454Z,85.01
2022-10-02T05:20:53.867Z,84.95
2022-10-02T05:24:19.786Z,84.66
2022-10-02T05:27:49.405Z,84.88
2022-10-02T05:31:04.534Z,84.64
2022-10-02T05:34:32.711Z,84.77
2022-10-02T05:37:53.057Z,84.67
2022-10-02T05:41:06.161Z,84.64
2022-10-02T05:44:18.926Z,84.57
2022-10-02T05:47:30.087Z,84.46
2022-10-02T05:50:39.335Z,84.44
2022-10-02T05:53:51.777Z,84.54
2022-10-02T05:57:04.451Z,84.36
2022-10-02T06:00:24.229Z,84.27
2022-10-02T06:03:37.242Z,84.32
2022-10-02T06:06:47.656Z,84.13
2022-10-02T06:10:00.409Z,84.21
2022-10-02T06:13:14.056Z,84.00
2022-10-02T06:16:25.825Z,83.89
2022-10-02T06:19:35.905Z,84.00
2022-10-02T06:22:47.826Z,84.00
2022-10-02T06:25:57.754Z,83.78
2022-10-02T06:29:06.681Z,83.71
2022-10-02T06:32:24.898Z,83.64
2022-10-02T06:35:44.416Z,83.62
2022-10-02T06:39:19.400Z,83.51
2022-10-02T06:42:42.864Z,83.56
2022-10-02T06:45:58.923Z,83.36
2022-10-02T06:49:13.541Z,83.33
2022-10-02T06:52:35.765Z,83.52
2022-10-02T06:55:52.114Z,83.26
2022-10-02T06:59:10.579Z,83.08
2022-10-02T07:02:33.891Z,82.95
2022-10-02T07:06:07.479Z,82.98
2022-10-02T07:09:44.181Z,83.06
2022-10-02T07:13:12.157Z,82.77
2022-10-02T07:16:33.387Z,82.98
2022-10-02T07:20:06.112Z,83.02
2022-10-02T07:23:29.495Z,82.82
2022-10-02T07:26:55.099Z,82.64
2022-10-02T07:30:06.444Z,82.49
2022-10-02T07:33:21.195Z,82.19
2022-10-02T07:36:39.174Z,82.35
2022-10-02T07:39:58.391Z,82.36
2022-10-02T07:43:18.250Z,82.24
2022-10-02T07:46:34.339Z,81.98
2022-10-02T07:49:52.174Z,81.80
2022-10-02T07:53:10.843Z,81.90
2022-10-02T07:56:22.787Z,81.50
2022-10-02T07:59:31.743Z,81.52
2022-10-02T08:02:44.515Z,81.56
2022-10-02T08:05:53.638Z,81.19
2022-10-02T08:09:04.475Z,81.34
2022-10-02T08:12:28.306Z,81.25
2022-10-02T08:15:38.692Z,81.07
2022-10-02T08:18:50.350Z,80.84
2022-10-02T08:22:02.423Z,80.57
2022-10-02T08:25:18.712Z,80.39
2022-10-02T08:28:30.558Z,80.01
2022-10-02T08:31:36.895Z,80.07
2022-10-02T08:34:44.269Z,80.03
2022-10-02T08:38:10.303Z,79.77
2022-10-02T08:41:44.416Z,79.70
2022-10-02T08:45:35.887Z,79.69
2022-10-02T08:49:28.528Z,79.36
2022-10-02T08:53:00.156Z,79.42
2022-10-02T08:56:26.508Z,79.11
2022-10-02T09:00:07.549Z,78.68
2022-10-02T09:03:52.323Z,78.64
2022-10-02T09:07:29.434Z,78.36
2022-10-02T09:11:20.975Z,78.12
2022-10-02T09:14:47.660Z,77.99
2022-10-02T09:18:07.921Z,78.13
2022-10-02T09:21:29.291Z,77.94
2022-10-02T09:25:11.324Z,77.89
2022-10-02T09:28:59.471Z,77.41
2022-10-02T09:32:43.435Z,77.13
2022-10-02T09:36:29.285Z,77.26
2022-10-02T09:40:10.913Z,76.69
2022-10-02T09:43:51.660Z,76.78
2022-10-02T09:47:24.460Z,76.86
2022-10-02T09:51:21.767Z,76.79
2022-10-02T09:55:01.699Z,76.37
2022-10-02T09:58:44.276Z,76.20
2022-10-02T10:02:31.199Z,75.90
2022-10-02T10:06:14.292Z,75.87
2022-10-02T10:10:05.395Z,75.76
2022-10-02T10:13:38.925Z,75.79
2022-10-02T10:17:21.529Z,75.65
2022-10-02T10:21:01.906Z,75.30
2022-10-02T10:24:39.974Z,75.15
2022-10-02T10:28:13.000Z,75.14
2022-10-02T10:31:57.473Z,75.05
2022-10-02T10:35:37.536Z,74.89
2022-10-02T10:38:53.185Z,74.94
2022-10-02T10:43:03.083Z,74.81
2022-10-02T10:46:23.368Z,74.63
2022-10-02T10:50:12.119Z,74.71
2022-10-02T10:53:44.979Z,74.75
2022-10-02T10:56:55.869Z,74.05
2022-10-02T11:00:22.056Z,73.96
2022-10-02T11:04:04.808Z,74.35
2022-10-02T11:07:36.458Z,74.45
2022-10-02T11:10:53.824Z,73.68
2022-10-02T11:14:20.686Z,73.90
2022-10-02T11:17:42.819Z,73.69
2022-10-02T11:21:23.320Z,73.44
2022-10-02T11:24:51.084Z,73.31
2022-10-02T11:28:32.414Z,73.03
2022-10-02T11:32:01.236Z,72.77
2022-10-02T11:35:25.370Z,72.58
2022-10-02T11:38:55.543Z,72.59
2022-10-02T11:42:29.356Z,72.61
2022-10-02T11:45:49.973Z,72.37
2022-10-02T11:49:27.357Z,72.14
2022-10-02T11:53:00.742Z,71.94
2022-10-02T11:56:31.289Z,71.82
2022-10-02T12:00:06.415Z,71.56
2022-10-02T12:03:21.939Z,71.54
2022-10-02T12:06:47.916Z,71.22
2022-10-02T12:10:06.616Z,71.19
2022-10-02T12:13:38.849Z,71.09
2022-10-02T12:17:07.887Z,71.13
2022-10-02T12:20:42.481Z,70.65
2022-10-02T12:24:14.549Z,70.87
2022-10-02T12:27:30.957Z,70.87
2022-10-02T12:30:44.709Z,70.56
2022-10-02T12:34:01.388Z,70.45
2022-10-02T12:37:16.800Z,70.30
2022-10-02T12:40:32.049Z,70.40
2022-10-02T12:44:05.569Z,70.16
2022-10-02T12:47:35.502Z,69.95
2022-10-02T12:51:06.040Z,69.85
2022-10-02T12:54:46.491Z,69.92
2022-10-02T12:58:07.515Z,69.82
2022-10-02T13:01:54.028Z,69.61
2022-10-02T13:05:44.611Z,69.52
2022-10-02T13:09:19.773Z,69.85
2022-10-02T13:12:51.090Z,70.09
2022-10-02T13:16:04.656Z,70.15
2022-10-02T13:19:21.311Z,70.16
2022-10-02T13:22:38.219Z,70.53
2022-10-02T13:26:06.872Z,70.82
2022-10-02T13:29:29.457Z,70.98
2022-10-02T13:32:59.588Z,71.07
2022-10-02T13:36:17.245Z,71.32
2022-10-02T13:39:36.996Z,71.23
2022-10-02T13:43:09.329Z,71.01
2022-10-02T13:46:30.480Z,71.30
2022-10-02T13:49:55.763Z,71.47
2022-10-02T13:53:32.350Z,71.54
2022-10-02T13:56:51.916Z,71.36
2022-10-02T14:00:09.549Z,71.22
2022-10-02T14:03:23.403Z,71.37
2022-10-02T14:06:35.528Z,70.98
2022-10-02T14:09:53.040Z,70.80
2022-10-02T14:13:19.979Z,70.58
2022-10-02T14:16:40.357Z,70.80
2022-10-02T14:20:18.875Z,70.92
2022-10-02T14:23:53.983Z,70.51
2022-10-02T14:27:12.947Z,70.50
2022-10-02T14:30:23.824Z,70.56
2022-10-02T14:33:40.513Z,70.66
2022-10-02T14:36:57.314Z,70.65
2022-10-02T14:40:11.247Z,70.54
2022-10-02T14:43:33.769Z,70.27
2022-10-02T14:47:15.392Z,70.20
2022-10-02T14:50:51.411Z,70.09
2022-10-02T14:54:13.835Z,69.89
2022-10-02T14:57:37.863Z,69.76
2022-10-02T15:00:56.470Z,69.67
2022-10-02T15:04:31.899Z,69.57
2022-10-02T15:07:39.278Z,69.36
2022-10-02T15:10:51.011Z,69.41
2022-10-02T15:14:04.948Z,69.26
2022-10-02T15:17:34.735Z,69.34
2022-10-02T15:20:59.558Z,69.41
2022-10-02T15:24:28.842Z,69.26
2022-10-02T15:27:44.287Z,69.40
2022-10-02T15:30:58.133Z,69.30
2022-10-02T15:34:15.186Z,69.37
2022-10-02T15:37:28.005Z,69.51
2022-10-02T15:40:37.944Z,69.64
2022-10-02T15:44:06.961Z,69.81
2022-10-02T15:47:32.148Z,69.99
2022-10-02T15:50:53.388Z,69.84
2022-10-02T15:54:11.053Z,69.93
2022-10-02T15:57:31.355Z,70.00
2022-10-02T16:01:02.183Z,70.22
2022-10-02T16:04:23.113Z,70.40
2022-10-02T16:07:47.154Z,70.46
2022-10-02T16:11:06.961Z,70.62
2022-10-02T16:14:16.210Z,70.71
2022-10-02T16:17:41.331Z,70.84
2022-10-02T16:21:20.043Z,71.02
2022-10-02T16:24:41.424Z,70.95
2022-10-02T16:28:04.476Z,70.99
2022-10-02T16:31:26.062Z,71.26
2022-10-02T16:35:13.264Z,71.39
2022-10-02T16:38:25.951Z,71.57
2022-10-02T16:41:42.688Z,71.79
2022-10-02T16:45:07.360Z,71.94
2022-10-02T16:48:18.234Z,72.02
2022-10-02T16:51:50.659Z,71.98
2022-10-02T16:55:06.810Z,72.16
2022-10-02T16:58:27.412Z,72.47
2022-10-02T17:02:05.502Z,72.51
2022-10-02T17:05:23.365Z,72.62
2022-10-02T17:08:37.729Z,72.63
2022-10-02T17:11:53.998Z,72.60
2022-10-02T17:15:10.220Z,72.63
2022-10-02T17:18:29.537Z,73.18
2022-10-02T17:21:45.805Z,73.37
2022-10-02T17:25:02.634Z,73.46
2022-10-02T17:28:21.102Z,73.72
2022-10-02T17:31:42.114Z,73.77
2022-10-02T17:34:52.066Z,73.95
2022-10-02T17:38:18.781Z,74.09
2022-10-02T17:41:42.497Z,74.05
2022-10-02T17:44:58.271Z,74.31
2022-10-02T17:48:21.914Z,74.44
2022-10-02T17:51:53.669Z,74.63
2022-10-02T17:55:27.687Z,74.65
2022-10-02T17:58:44.295Z,74.62
2022-10-02T18:02:02.291Z,74.78
2022-10-02T18:05:22.324Z,74.76
2022-10-02T18:09:06.992Z,75.11
2022-10-02T18:12:51.954Z,75.28
2022-10-02T18:16:10.645Z,75.22
2022-10-02T18:19:36.427Z,75.44
2022-10-02T18:22:58.567Z,75.51
2022-10-02T18:26:20.258Z,75.68
2022-10-02T18:29:38.048Z,75.59
2022-10-02T18:33:09.302Z,75.78
2022-10-02T18:36:39.252Z,75.82
2022-10-02T18:40:04.876Z,75.78
2022-10-02T18:43:43.466Z,75.92
2022-10-02T18:46:59.464Z,76.14
2022-10-02T18:50:18.525Z,76.02
2022-10-02T18:53:52.268Z,76.06
2022-10-02T18:57:14.413Z,76.24
2022-10-02T19:00:24.429Z,76.19
2022-10-02T19:03:37.999Z,76.42
2022-10-02T19:06:53.573Z,76.33
2022-10-02T19:10:29.370Z,76.42
2022-10-02T19:13:42.276Z,76.53
2022-10-02T19:17:02.567Z,76.64
2022-10-02T19:20:37.095Z,76.65
2022-10-02T19:23:50.433Z,76.84
2022-10-02T19:27:00.724Z,76.71
2022-10-02T19:30:23.579Z,76.78
2022-10-02T19:33:43.530Z,76.85
2022-10-02T19:36:53.239Z,77.01
2022-10-02T19:40:03.292Z,77.08
2022-10-02T19:43:19.102Z,77.26
2022-10-02T19:46:39.928Z,77.06
2022-10-02T19:49:48.058Z,77.36
2022-10-02T19:52:58.872Z,77.26
2022-10-02T19:56:11.248Z,77.49
2022-10-02T19:59:21.219Z,77.50
2022-10-02T20:02:31.255Z,77.61
2022-10-02T20:05:38.785Z,77.81
2022-10-02T20:08:47.946Z,77.69
2022-10-02T20:11:56.437Z,77.66
2022-10-02T20:15:10.260Z,77.78
2022-10-02T20:18:17.086Z,77.94
2022-10-02T20:21:30.903Z,77.93
2022-10-02T20:24:42.636Z,77.86
2022-10-02T20:27:54.178Z,78.03
2022-10-02T20:31:05.945Z,78.17
2022-10-02T20:34:23.692Z,78.12
2022-10-02T20:37:35.079Z,78.32
2022-10-02T20:40:47.651Z,78.31
2022-10-02T20:43:56.670Z,78.28
2022-10-02T20:47:32.219Z,78.19
2022-10-02T20:50:41.728Z,78.44
2022-10-02T20:54:18.880Z,78.28
2022-10-02T20:58:01.626Z,78.20
2022-10-02T21:01:20.021Z,78.31
2022-10-02T21:05:11.224Z,78.45
2022-10-02T21:08:40.864Z,78.44
2022-10-02T21:12:11.270Z,78.49
2022-10-02T21:15:58.804Z,78.56
2022-10-02T21:19:31.638Z,78.65
2022-10-02T21:23:23.733Z,78.63
2022-10-02T21:26:48.962Z,78.90
2022-10-02T21:30:04.981Z,78.71
2022-10-02T21:33:21.704Z,78.75
2022-10-02T21:36:34.196Z,78.89
2022-10-02T21:40:09.423Z,78.89
2022-10-02T21:43:48.981Z,79.08
2022-10-02T21:47:18.963Z,78.99
2022-10-02T21:51:07.954Z,79.11
2022-10-02T21:54:49.845Z,79.03
2022-10-02T21:58:38.710Z,79.06
2022-10-02T22:02:15.256Z,79.22
2022-10-02T22:05:42.082Z,79.36
2022-10-02T22:09:03.363Z,79.16
2022-10-02T22:12:21.842Z,79.18
2022-10-02T22:15:39.637Z,79.28
2022-10-02T22:18:54.947Z,79.36
2022-10-02T22:22:13.407Z,79.33
2022-10-02T22:25:34.342Z,79.56
2022-10-02T22:28:46.399Z,79.53
2022-10-02T22:32:29.513Z,79.45
2022-10-02T22:35:50.046Z,79.64
2022-10-02T22:39:03.580Z,79.57
2022-10-02T22:42:15.871Z,79.49
2022-10-02T22:45:27.755Z,79.66
2022-10-02T22:48:41.412Z,79.59
2022-10-02T22:51:54.889Z,79.51
2022-10-02T22:55:11.479Z,79.77
2022-10-02T22:58:24.376Z,79.83
2022-10-02T23:01:39.777Z,79.68
2022-10-02T23:04:53.408Z,79.82
2022-10-02T23:08:06.795Z,79.96
2022-10-02T23:11:18.193Z,80.07
2022-10-02T23:14:35.747Z,80.05
2022-10-02T23:17:50.826Z,80.00
2022-10-02T23:21:04.955Z,80.12
2022-10-02T23:24:26.169Z,80.22
2022-10-02T23:27:39.859Z,80.20
2022-10-02T23:30:50.234Z,80.19
2022-10-02T23:34:03.914Z,80.34
2022-10-02T23:37:18.735Z,80.30
2022-10-02T23:40:43.990Z,80.37
2022-10-02T23:43:58.791Z,80.41
2022-10-02T23:47:17.539Z,80.58
2022-10-02T23:50:28.394Z,80.28
2022-10-02T23:53:58.564Z,80.38
2022-10-02T23:57:21.814Z,80.35
